Time;durP1;ratioP1;P1;durP2;ratioP2;P2;SDS_P1;SDS_P2;PMS_P1;PMS_P2;Temp;Humidity;BMP_temperature;BMP_pressure;BME280_temperature;BME280_humidity;BME280_pressure;Samples;Min_cycle;Max_cycle;Signal;HPM_P1;HPM_P2
2022/07/29 00:00:19;;;;;;;4.68;2.20;;;;;;;;;;5033679;28;20061;-55
2022/07/29 00:02:47;;;;;;;5.78;1.90;;;;;;;;;;5033558;28;20060;-54
2022/07/29 00:05:16;;;;;;;4.75;1.98;;;;;;;;;;5027022;28;20053;-55
2022/07/29 00:07:47;;;;;;;4.72;2.40;;;;;;;;;;5032831;28;20152;-55
2022/07/29 00:10:16;;;;;;;5.07;2.22;;;;;;;;;;5033574;28;20045;-55
2022/07/29 00:12:45;;;;;;;6.25;2.58;;;;;;;;;;5033431;28;20115;-55
2022/07/29 00:15:19;;;;;;;5.82;2.20;;;;;;;;;;5033442;28;20049;-56
2022/07/29 00:17:46;;;;;;;5.30;2.47;;;;;;;;;;5033930;28;20114;-56
2022/07/29 00:20:14;;;;;;;6.20;2.97;;;;;;;;;;5033359;28;20369;-55
2022/07/29 00:22:45;;;;;;;7.53;3.10;;;;;;;;;;5030821;28;20409;-55
2022/07/29 00:25:21;;;;;;;4.95;2.83;;;;;;;;;;5032481;28;20053;-55
2022/07/29 00:27:51;;;;;;;6.07;2.90;;;;;;;;;;5033507;28;20046;-54
2022/07/29 00:30:30;;;;;;;5.47;3.00;;;;;;;;;;5031628;28;20053;-53
2022/07/29 00:33:00;;;;;;;8.43;3.10;;;;;;;;;;5033255;28;20045;-52
2022/07/29 00:35:44;;;;;;;6.40;3.03;;;;;;;;;;5032374;28;20147;-54
2022/07/29 00:38:20;;;;;;;5.10;2.97;;;;;;;;;;5032812;28;20132;-54
2022/07/29 00:40:50;;;;;;;6.13;3.08;;;;;;;;;;5033218;28;20049;-55
2022/07/29 00:43:18;;;;;;;6.43;2.83;;;;;;;;;;5033010;28;20053;-54
2022/07/29 00:45:50;;;;;;;4.50;2.72;;;;;;;;;;5033051;28;20374;-55
2022/07/29 00:48:19;;;;;;;5.38;2.95;;;;;;;;;;5033302;28;20067;-56
2022/07/29 00:50:47;;;;;;;5.97;2.97;;;;;;;;;;5032692;28;20355;-56
2022/07/29 00:53:13;;;;;;;3.67;2.20;;;;;;;;;;5033149;28;20378;-54
2022/07/29 00:55:41;;;;;;;5.53;2.30;;;;;;;;;;5032539;28;20068;-55
2022/07/29 00:58:11;;;;;;;7.10;2.92;;;;;;;;;;5032616;28;20053;-52
2022/07/29 01:00:41;;;;;;;6.40;2.67;;;;;;;;;;5032315;28;20049;-55
2022/07/29 01:03:21;;;;;;;5.75;2.60;;;;;;;;;;5031899;28;20054;-54
2022/07/29 01:05:48;;;;;;;6.55;2.30;;;;;;;;;;5028610;28;20050;-56
2022/07/29 01:08:19;;;;;;;8.43;2.78;;;;;;;;;;5031624;28;20049;-56
2022/07/29 01:10:49;;;;;;;7.20;2.80;;;;;;;;;;5032233;28;20041;-55
2022/07/29 01:13:17;;;;;;;6.80;2.47;;;;;;;;;;5029080;28;20608;-55
2022/07/29 01:15:47;;;;;;;5.93;2.80;;;;;;;;;;5032575;28;20104;-54
2022/07/29 01:18:25;;;;;;;6.47;2.70;;;;;;;;;;5032667;28;20049;-53
2022/07/29 01:21:01;;;;;;;4.50;2.50;;;;;;;;;;5031382;28;20054;-55
2022/07/29 01:23:43;;;;;;;6.15;3.00;;;;;;;;;;5018997;28;20049;-52
2022/07/29 01:26:24;;;;;;;4.88;2.20;;;;;;;;;;5031945;28;20053;-54
2022/07/29 01:29:08;;;;;;;5.82;2.65;;;;;;;;;;5032163;28;20057;-55
2022/07/29 01:31:51;;;;;;;5.93;2.85;;;;;;;;;;5031161;28;20095;-55
2022/07/29 01:34:28;;;;;;;8.40;3.17;;;;;;;;;;5032057;28;20054;-55
2022/07/29 01:37:00;;;;;;;7.53;3.33;;;;;;;;;;5025050;28;20085;-54
2022/07/29 01:39:31;;;;;;;6.43;2.65;;;;;;;;;;5032200;28;20072;-54
2022/07/29 01:42:14;;;;;;;4.70;3.00;;;;;;;;;;5032255;28;20390;-55
2022/07/29 01:44:47;;;;;;;6.15;2.80;;;;;;;;;;5031790;28;20521;-54
2022/07/29 01:47:18;;;;;;;8.23;3.20;;;;;;;;;;5032534;28;20048;-55
2022/07/29 01:49:51;;;;;;;6.55;3.00;;;;;;;;;;5033256;28;20061;-55
2022/07/29 01:52:24;;;;;;;8.82;3.53;;;;;;;;;;5039162;28;20061;-54
2022/07/29 01:55:03;;;;;;;4.40;2.72;;;;;;;;;;5032547;28;20049;-55
2022/07/29 01:57:41;;;;;;;6.40;2.63;;;;;;;;;;5032047;28;20072;-55
2022/07/29 02:00:08;;;;;;;7.75;2.67;;;;;;;;;;5031614;28;20056;-54
2022/07/29 02:02:40;;;;;;;5.90;3.08;;;;;;;;;;5031744;28;20088;-55
2022/07/29 02:05:22;;;;;;;7.78;2.80;;;;;;;;;;5025922;28;20375;-54
2022/07/29 02:07:51;;;;;;;8.55;3.22;;;;;;;;;;5018206;28;20061;-55
2022/07/29 02:10:21;;;;;;;7.10;3.05;;;;;;;;;;5032234;28;20045;-54
2022/07/29 02:12:49;;;;;;;7.32;2.45;;;;;;;;;;5031537;28;20045;-54
2022/07/29 02:15:20;;;;;;;5.25;2.80;;;;;;;;;;5032206;28;20042;-55
2022/07/29 02:17:52;;;;;;;5.15;2.90;;;;;;;;;;5028179;28;20064;-55
2022/07/29 02:20:35;;;;;;;6.30;3.30;;;;;;;;;;5030631;28;20053;-55
2022/07/29 02:23:04;;;;;;;5.90;2.92;;;;;;;;;;5034792;28;20057;-55
2022/07/29 02:25:35;;;;;;;5.13;2.63;;;;;;;;;;5034577;28;20045;-53
2022/07/29 02:28:11;;;;;;;5.65;2.58;;;;;;;;;;5034267;28;20045;-55
2022/07/29 02:30:41;;;;;;;4.15;2.25;;;;;;;;;;5036160;28;20068;-54
2022/07/29 02:33:10;;;;;;;5.90;2.50;;;;;;;;;;5035797;28;20053;-54
2022/07/29 02:35:46;;;;;;;8.13;3.30;;;;;;;;;;5035310;28;20060;-55
2022/07/29 02:41:03;;;;;;;6.35;2.90;;;;;;;;;;5017808;28;20060;-55
2022/07/29 02:43:32;;;;;;;6.55;2.60;;;;;;;;;;5034924;28;20057;-55
2022/07/29 02:46:00;;;;;;;5.45;2.42;;;;;;;;;;5035272;28;20443;-53
2022/07/29 02:48:34;;;;;;;7.90;2.95;;;;;;;;;;5034389;28;20056;-55
2022/07/29 02:51:15;;;;;;;10.02;3.17;;;;;;;;;;5035728;28;20144;-54
2022/07/29 02:53:53;;;;;;;6.45;3.10;;;;;;;;;;5016586;28;20072;-54
2022/07/29 02:56:27;;;;;;;7.70;3.20;;;;;;;;;;5036059;28;20119;-55
2022/07/29 02:58:58;;;;;;;6.13;2.70;;;;;;;;;;5034261;28;20060;-54
2022/07/29 03:01:28;;;;;;;7.75;2.80;;;;;;;;;;5034978;28;20053;-54
2022/07/29 03:03:57;;;;;;;7.13;2.85;;;;;;;;;;5035126;28;20445;-52
2022/07/29 03:06:34;;;;;;;9.60;3.03;;;;;;;;;;5024996;28;20462;-54
2022/07/29 03:09:10;;;;;;;5.25;2.63;;;;;;;;;;5026249;28;20045;-56
2022/07/29 03:11:41;;;;;;;6.60;3.20;;;;;;;;;;5031245;28;20063;-55
2022/07/29 03:14:17;;;;;;;6.88;3.17;;;;;;;;;;5034463;28;20045;-56
2022/07/29 03:16:45;;;;;;;4.60;2.45;;;;;;;;;;5032870;28;20053;-55
2022/07/29 03:19:16;;;;;;;7.65;3.08;;;;;;;;;;5034811;28;20049;-55
2022/07/29 03:21:53;;;;;;;4.78;1.98;;;;;;;;;;5034084;28;20156;-55
2022/07/29 03:24:35;;;;;;;6.50;3.08;;;;;;;;;;5034350;28;20054;-55
2022/07/29 03:27:04;;;;;;;5.13;2.58;;;;;;;;;;5034606;28;20402;-55
2022/07/29 03:29:34;;;;;;;7.00;2.95;;;;;;;;;;5034457;28;20065;-55
2022/07/29 03:32:09;;;;;;;6.75;2.90;;;;;;;;;;5033433;28;20058;-53
2022/07/29 03:34:38;;;;;;;5.75;2.70;;;;;;;;;;5034573;28;20057;-55
2022/07/29 03:37:08;;;;;;;5.70;2.97;;;;;;;;;;5034287;28;20053;-55
2022/07/29 03:39:38;;;;;;;8.15;3.45;;;;;;;;;;5034798;28;20049;-55
2022/07/29 03:42:07;;;;;;;7.82;3.00;;;;;;;;;;5034851;28;20045;-53
2022/07/29 03:44:37;;;;;;;4.68;3.40;;;;;;;;;;5034787;28;20539;-52
2022/07/29 03:47:06;;;;;;;7.55;2.78;;;;;;;;;;5034578;28;20074;-55
2022/07/29 03:49:35;;;;;;;4.85;3.00;;;;;;;;;;5034491;28;20132;-55
2022/07/29 03:52:04;;;;;;;6.25;3.38;;;;;;;;;;5034560;28;20451;-55
2022/07/29 03:54:39;;;;;;;6.63;2.75;;;;;;;;;;5033670;28;20107;-52
2022/07/29 03:57:09;;;;;;;9.10;3.30;;;;;;;;;;5033655;28;20141;-52
2022/07/29 03:59:39;;;;;;;10.13;3.03;;;;;;;;;;5033537;28;20806;-53
2022/07/29 04:02:08;;;;;;;6.57;3.35;;;;;;;;;;5033822;28;20433;-55
2022/07/29 04:04:36;;;;;;;7.35;2.80;;;;;;;;;;5031924;28;20155;-55
2022/07/29 04:07:02;;;;;;;7.90;3.17;;;;;;;;;;5022664;28;20114;-56
2022/07/29 04:09:39;;;;;;;11.10;3.22;;;;;;;;;;5033855;28;20050;-56
2022/07/29 04:12:12;;;;;;;10.45;3.20;;;;;;;;;;5034201;28;20068;-55
2022/07/29 04:14:43;;;;;;;7.78;3.25;;;;;;;;;;5033807;28;20132;-56
2022/07/29 04:17:13;;;;;;;10.73;3.30;;;;;;;;;;5032699;28;20149;-56
2022/07/29 04:19:40;;;;;;;9.82;3.28;;;;;;;;;;5028979;28;20049;-56
2022/07/29 04:22:10;;;;;;;8.73;3.38;;;;;;;;;;5032563;28;20052;-55
2022/07/29 04:24:49;;;;;;;15.02;3.72;;;;;;;;;;5034046;28;20462;-55
2022/07/29 04:27:25;;;;;;;12.55;3.55;;;;;;;;;;5034091;28;20042;-56
2022/07/29 04:30:00;;;;;;;8.63;2.97;;;;;;;;;;5033146;28;20084;-56
2022/07/29 04:32:27;;;;;;;6.38;3.30;;;;;;;;;;5033412;28;20049;-55
2022/07/29 04:34:58;;;;;;;6.43;3.38;;;;;;;;;;5033601;28;20050;-56
2022/07/29 04:37:28;;;;;;;7.10;3.15;;;;;;;;;;5032689;28;20108;-56
2022/07/29 04:39:58;;;;;;;9.32;2.70;;;;;;;;;;5033462;28;20080;-56
2022/07/29 04:42:33;;;;;;;4.88;2.10;;;;;;;;;;5033190;28;20049;-56
2022/07/29 04:44:59;;;;;;;8.52;2.60;;;;;;;;;;5032239;28;20084;-55
2022/07/29 04:47:29;;;;;;;5.68;2.58;;;;;;;;;;5029013;28;20459;-55
2022/07/29 04:49:58;;;;;;;5.78;2.60;;;;;;;;;;5032763;28;20081;-56
2022/07/29 04:52:26;;;;;;;8.75;2.80;;;;;;;;;;5028867;28;20601;-55
2022/07/29 04:54:55;;;;;;;9.32;3.45;;;;;;;;;;5033111;28;20378;-55
2022/07/29 04:57:25;;;;;;;5.53;2.33;;;;;;;;;;5032255;28;20056;-56
2022/07/29 05:00:00;;;;;;;5.95;2.63;;;;;;;;;;5032586;28;20053;-56
2022/07/29 05:02:31;;;;;;;4.43;1.98;;;;;;;;;;5032984;28;20132;-56
2022/07/29 05:07:42;;;;;;;3.63;1.70;;;;;;;;;;5032662;28;20049;-56
2022/07/29 05:10:09;;;;;;;4.50;1.60;;;;;;;;;;5032751;28;20053;-55
2022/07/29 05:12:39;;;;;;;4.53;1.92;;;;;;;;;;5032844;28;20045;-55
2022/07/29 05:15:20;;;;;;;6.43;1.60;;;;;;;;;;5032099;28;20111;-56
2022/07/29 05:17:47;;;;;;;5.65;1.48;;;;;;;;;;5015839;28;20049;-55
2022/07/29 05:20:18;;;;;;;5.65;1.70;;;;;;;;;;5032458;28;20047;-53
2022/07/29 05:22:45;;;;;;;3.22;1.80;;;;;;;;;;5031618;28;20049;-55
2022/07/29 05:25:14;;;;;;;3.78;1.20;;;;;;;;;;5031037;28;20509;-56
2022/07/29 05:27:41;;;;;;;20.13;2.05;;;;;;;;;;5032425;28;20041;-55
2022/07/29 05:30:11;;;;;;;15.40;2.20;;;;;;;;;;5033546;28;20057;-52
2022/07/29 05:32:41;;;;;;;3.75;1.15;;;;;;;;;;5033297;28;20056;-52
2022/07/29 05:35:09;;;;;;;4.60;1.30;;;;;;;;;;5031898;28;20045;-53
2022/07/29 05:37:38;;;;;;;5.05;1.75;;;;;;;;;;5032564;28;20056;-52
2022/07/29 05:40:15;;;;;;;4.78;1.10;;;;;;;;;;5032030;28;20046;-56
2022/07/29 05:42:45;;;;;;;5.55;1.00;;;;;;;;;;5031931;28;20213;-55
2022/07/29 05:45:27;;;;;;;3.78;0.90;;;;;;;;;;5030699;28;20056;-56
2022/07/29 05:47:57;;;;;;;2.50;0.80;;;;;;;;;;5031655;28;20348;-56
2022/07/29 05:50:27;;;;;;;7.63;0.80;;;;;;;;;;5028740;28;20049;-56
2022/07/29 05:52:57;;;;;;;5.43;0.77;;;;;;;;;;5023796;28;20045;-56
2022/07/29 05:55:24;;;;;;;1.05;0.50;;;;;;;;;;5034485;28;20057;-54
2022/07/29 05:57:54;;;;;;;3.47;0.63;;;;;;;;;;5034930;28;20057;-55
2022/07/29 06:00:38;;;;;;;1.73;0.70;;;;;;;;;;5036736;28;20127;-55
2022/07/29 06:03:07;;;;;;;1.90;0.50;;;;;;;;;;5035859;28;20151;-56
2022/07/29 06:05:37;;;;;;;4.13;1.10;;;;;;;;;;5031472;28;20045;-55
2022/07/29 06:08:05;;;;;;;2.72;0.57;;;;;;;;;;5035505;28;20057;-55
2022/07/29 06:10:35;;;;;;;1.90;0.70;;;;;;;;;;5029953;28;20049;-51
2022/07/29 06:13:03;;;;;;;5.28;0.68;;;;;;;;;;5028239;28;20046;-51
2022/07/29 06:15:38;;;;;;;2.22;0.55;;;;;;;;;;5033968;28;20383;-52
2022/07/29 06:18:08;;;;;;;1.70;0.50;;;;;;;;;;5035929;28;20490;-52
2022/07/29 06:20:39;;;;;;;1.15;0.40;;;;;;;;;;5036207;28;20133;-52
2022/07/29 06:23:09;;;;;;;1.35;0.50;;;;;;;;;;5035992;28;20136;-52
2022/07/29 06:25:40;;;;;;;2.08;0.40;;;;;;;;;;5036114;28;20053;-52
2022/07/29 06:28:07;;;;;;;0.80;0.40;;;;;;;;;;5036147;28;20049;-52
2022/07/29 06:30:51;;;;;;;0.80;0.40;;;;;;;;;;5034466;28;20488;-53
2022/07/29 06:33:20;;;;;;;30.88;2.80;;;;;;;;;;5035014;28;20364;-52
2022/07/29 06:35:49;;;;;;;8.45;1.00;;;;;;;;;;5035975;28;20053;-52
2022/07/29 06:38:17;;;;;;;1.23;0.40;;;;;;;;;;5036022;28;20435;-55
2022/07/29 06:43:31;;;;;;;0.95;0.47;;;;;;;;;;5035018;28;20056;-55
2022/07/29 06:46:13;;;;;;;1.10;0.50;;;;;;;;;;5035379;28;20481;-52
2022/07/29 06:48:43;;;;;;;17.35;1.35;;;;;;;;;;5034984;28;20056;-56
2022/07/29 06:51:12;;;;;;;1.05;0.40;;;;;;;;;;5035667;28;20103;-52
2022/07/29 06:53:40;;;;;;;1.08;0.50;;;;;;;;;;5035108;28;20127;-52
2022/07/29 06:56:13;;;;;;;0.85;0.40;;;;;;;;;;5035226;28;20386;-52
2022/07/29 06:58:43;;;;;;;5.10;0.80;;;;;;;;;;5034863;28;20377;-54
2022/07/29 07:01:23;;;;;;;1.30;0.52;;;;;;;;;;5034321;28;20053;-53
2022/07/29 07:03:51;;;;;;;1.02;0.40;;;;;;;;;;5035349;28;20053;-52
2022/07/29 07:06:18;;;;;;;3.40;0.80;;;;;;;;;;5035014;28;20057;-53
2022/07/29 07:08:48;;;;;;;3.28;0.40;;;;;;;;;;5034911;28;20378;-50
2022/07/29 07:11:18;;;;;;;0.93;0.40;;;;;;;;;;5031842;28;20133;-53
2022/07/29 07:13:49;;;;;;;0.95;0.43;;;;;;;;;;5026062;28;20049;-50
2022/07/29 07:16:26;;;;;;;1.38;0.43;;;;;;;;;;5029414;28;20104;-50
2022/07/29 07:18:55;;;;;;;1.15;0.40;;;;;;;;;;5027577;28;20076;-52
2022/07/29 07:21:23;;;;;;;0.40;0.30;;;;;;;;;;5023755;28;20439;-53
2022/07/29 07:23:52;;;;;;;6.03;0.60;;;;;;;;;;5034959;28;20045;-52
2022/07/29 07:26:21;;;;;;;0.50;0.28;;;;;;;;;;5032304;28;20144;-53
2022/07/29 07:28:48;;;;;;;0.80;0.30;;;;;;;;;;5027351;28;20395;-53
2022/07/29 07:31:32;;;;;;;1.05;0.20;;;;;;;;;;5030377;28;20394;-55
2022/07/29 07:33:58;;;;;;;1.23;0.50;;;;;;;;;;5023299;28;20654;-52
2022/07/29 07:36:29;;;;;;;2.13;0.40;;;;;;;;;;5034299;28;20132;-54
2022/07/29 07:38:55;;;;;;;1.10;0.47;;;;;;;;;;5034352;28;20045;-55
2022/07/29 07:41:23;;;;;;;0.95;0.30;;;;;;;;;;5033803;28;20049;-51
2022/07/29 07:43:50;;;;;;;1.25;0.30;;;;;;;;;;5034181;28;20045;-51
2022/07/29 07:46:24;;;;;;;12.40;1.50;;;;;;;;;;5034638;28;20049;-53
2022/07/29 07:48:54;;;;;;;2.03;0.30;;;;;;;;;;5033645;28;20049;-52
2022/07/29 07:51:24;;;;;;;1.27;0.38;;;;;;;;;;5033739;28;20085;-51
2022/07/29 07:54:01;;;;;;;1.83;0.47;;;;;;;;;;5033593;28;20362;-53
2022/07/29 07:56:31;;;;;;;24.67;1.88;;;;;;;;;;5034422;28;20414;-53
2022/07/29 07:58:58;;;;;;;1.45;0.50;;;;;;;;;;5034172;28;20514;-54
2022/07/29 08:01:29;;;;;;;1.33;0.35;;;;;;;;;;5031669;28;20609;-53
2022/07/29 08:03:56;;;;;;;1.55;0.28;;;;;;;;;;5033896;28;20060;-55
2022/07/29 08:06:26;;;;;;;0.35;0.20;;;;;;;;;;5033855;28;20442;-54
2022/07/29 08:08:53;;;;;;;4.55;0.95;;;;;;;;;;5033328;28;20064;-52
2022/07/29 08:11:21;;;;;;;0.40;0.20;;;;;;;;;;5034060;28;20447;-57
2022/07/29 08:13:48;;;;;;;0.93;0.32;;;;;;;;;;5031147;28;20054;-50
2022/07/29 08:16:18;;;;;;;2.50;0.40;;;;;;;;;;5033708;28;20049;-54
2022/07/29 08:18:48;;;;;;;1.83;0.45;;;;;;;;;;5033001;28;20052;-52
2022/07/29 08:21:16;;;;;;;0.77;0.20;;;;;;;;;;5031533;28;20057;-53
2022/07/29 08:23:50;;;;;;;1.45;0.30;;;;;;;;;;5033665;28;20049;-52
2022/07/29 08:29:00;;;;;;;2.95;0.30;;;;;;;;;;5027523;28;20049;-56
2022/07/29 08:31:28;;;;;;;2.00;0.30;;;;;;;;;;5027231;28;20064;-53
2022/07/29 08:34:10;;;;;;;0.88;0.30;;;;;;;;;;5033268;28;20056;-55
2022/07/29 08:36:36;;;;;;;2.90;0.50;;;;;;;;;;5033164;28;20057;-52
2022/07/29 08:39:04;;;;;;;0.32;0.20;;;;;;;;;;5027802;28;20126;-53
2022/07/29 08:41:35;;;;;;;4.50;0.63;;;;;;;;;;5028404;28;20060;-55
2022/07/29 08:44:05;;;;;;;0.70;0.30;;;;;;;;;;5033074;28;20495;-52
2022/07/29 08:46:34;;;;;;;3.42;0.35;;;;;;;;;;5027698;28;20057;-53
2022/07/29 08:49:03;;;;;;;77.65;5.82;;;;;;;;;;5026378;28;20048;-54
2022/07/29 08:51:32;;;;;;;5.35;0.60;;;;;;;;;;5032142;28;20490;-56
2022/07/29 08:54:03;;;;;;;2.67;0.40;;;;;;;;;;5033057;28;20049;-52
2022/07/29 08:56:33;;;;;;;2.70;0.30;;;;;;;;;;5031102;28;20529;-52
2022/07/29 08:59:10;;;;;;;1.08;0.40;;;;;;;;;;5032496;28;20391;-55
2022/07/29 09:01:47;;;;;;;9.93;0.88;;;;;;;;;;5031438;28;20143;-53
2022/07/29 09:04:18;;;;;;;1.58;0.30;;;;;;;;;;5029397;28;20049;-53
2022/07/29 09:06:48;;;;;;;13.02;1.02;;;;;;;;;;5031483;28;20053;-55
2022/07/29 09:09:16;;;;;;;2.00;0.40;;;;;;;;;;5032735;28;20045;-52
2022/07/29 09:11:46;;;;;;;1.02;0.40;;;;;;;;;;5032885;28;20435;-54
2022/07/29 09:14:16;;;;;;;2.30;0.40;;;;;;;;;;5031098;28;20053;-53
2022/07/29 09:16:56;;;;;;;12.27;1.40;;;;;;;;;;5032111;28;20053;-50
2022/07/29 09:19:32;;;;;;;0.85;0.30;;;;;;;;;;5030363;28;20055;-52
2022/07/29 09:22:01;;;;;;;1.60;0.50;;;;;;;;;;5032228;28;20413;-52
2022/07/29 09:24:40;;;;;;;0.77;0.30;;;;;;;;;;5032490;28;20054;-52
2022/07/29 09:27:10;;;;;;;0.80;0.30;;;;;;;;;;5032490;28;20049;-52
2022/07/29 09:29:40;;;;;;;3.38;0.60;;;;;;;;;;5031410;28;20061;-51
2022/07/29 09:32:17;;;;;;;0.77;0.40;;;;;;;;;;5032918;28;20045;-51
2022/07/29 09:34:53;;;;;;;1.08;0.60;;;;;;;;;;5031955;28;20433;-52
2022/07/29 09:37:30;;;;;;;1.15;0.73;;;;;;;;;;5029856;28;20092;-52
2022/07/29 09:40:00;;;;;;;0.98;0.30;;;;;;;;;;5033017;28;20045;-54
2022/07/29 09:42:33;;;;;;;0.70;0.40;;;;;;;;;;5032308;28;20500;-51
2022/07/29 09:45:03;;;;;;;3.38;0.50;;;;;;;;;;5032216;28;20053;-51
2022/07/29 09:47:44;;;;;;;0.88;0.47;;;;;;;;;;5029454;28;20129;-53
2022/07/29 09:50:37;;;;;;;2.53;0.50;;;;;;;;;;5032693;28;20107;-53
2022/07/29 09:53:09;;;;;;;1.65;0.50;;;;;;;;;;5032165;28;20494;-52
2022/07/29 09:55:49;;;;;;;2.85;0.40;;;;;;;;;;5032090;28;20128;-53
2022/07/29 09:58:17;;;;;;;1.42;0.40;;;;;;;;;;5032534;28;20052;-54
2022/07/29 10:00:45;;;;;;;2.08;0.52;;;;;;;;;;5031885;28;20433;-52
2022/07/29 10:03:13;;;;;;;1.45;0.30;;;;;;;;;;5028458;28;20060;-50
2022/07/29 10:05:46;;;;;;;1.77;0.40;;;;;;;;;;5031648;28;20045;-50
2022/07/29 10:08:13;;;;;;;0.75;0.30;;;;;;;;;;5032439;28;20103;-52
2022/07/29 10:10:51;;;;;;;1.25;0.30;;;;;;;;;;5030168;28;20038;-54
2022/07/29 10:13:19;;;;;;;5.57;0.68;;;;;;;;;;5031287;28;20062;-53
2022/07/29 10:15:46;;;;;;;1.30;0.60;;;;;;;;;;5032054;28;20107;-53
2022/07/29 10:18:16;;;;;;;35.88;3.55;;;;;;;;;;5031568;28;20101;-54
2022/07/29 10:20:48;;;;;;;1.42;0.40;;;;;;;;;;5031822;28;20435;-54
2022/07/29 10:23:15;;;;;;;0.88;0.40;;;;;;;;;;5031278;28;20510;-52
2022/07/29 10:25:43;;;;;;;26.30;2.78;;;;;;;;;;5031418;28;20049;-51
2022/07/29 10:28:13;;;;;;;5.07;0.50;;;;;;;;;;5032019;28;20045;-51
2022/07/29 10:30:50;;;;;;;1.83;0.40;;;;;;;;;;5031666;28;20049;-51
2022/07/29 10:33:37;;;;;;;1.98;0.30;;;;;;;;;;5031737;28;20124;-51
2022/07/29 10:36:19;;;;;;;2.03;0.50;;;;;;;;;;5032110;28;20061;-55
2022/07/29 10:38:49;;;;;;;0.57;0.30;;;;;;;;;;5031995;28;20139;-54
2022/07/29 10:41:35;;;;;;;1.20;0.32;;;;;;;;;;5032889;28;20165;-52
2022/07/29 10:44:12;;;;;;;1.42;0.30;;;;;;;;;;5034268;28;20062;-52
2022/07/29 10:46:42;;;;;;;2.80;0.40;;;;;;;;;;5035435;28;20045;-55
2022/07/29 10:49:26;;;;;;;0.60;0.30;;;;;;;;;;5034058;28;20073;-53
2022/07/29 10:52:06;;;;;;;1.52;0.40;;;;;;;;;;5032730;28;20064;-56
2022/07/29 10:54:47;;;;;;;0.68;0.30;;;;;;;;;;5034169;28;20046;-56
2022/07/29 10:57:25;;;;;;;1.90;0.30;;;;;;;;;;5031255;28;20053;-54
2022/07/29 11:00:12;;;;;;;0.50;0.22;;;;;;;;;;5033549;28;20115;-50
2022/07/29 11:02:48;;;;;;;0.85;0.35;;;;;;;;;;5030310;28;20177;-51
2022/07/29 11:05:19;;;;;;;2.15;0.47;;;;;;;;;;5035020;28;20091;-52
2022/07/29 11:08:05;;;;;;;0.88;0.40;;;;;;;;;;5022574;28;20057;-53
2022/07/29 11:10:35;;;;;;;4.68;0.38;;;;;;;;;;5034842;28;20049;-52
2022/07/29 11:13:03;;;;;;;4.30;0.60;;;;;;;;;;5034060;28;20065;-50
2022/07/29 11:15:57;;;;;;;0.28;0.20;;;;;;;;;;5033124;28;20157;-51
2022/07/29 11:18:26;;;;;;;14.30;1.58;;;;;;;;;;5034651;28;20508;-50
2022/07/29 11:20:56;;;;;;;4.93;0.40;;;;;;;;;;5034385;28;20041;-51
2022/07/29 11:23:26;;;;;;;1.27;0.30;;;;;;;;;;5032416;28;20136;-54
2022/07/29 11:26:16;;;;;;;3.42;0.50;;;;;;;;;;5032904;28;20049;-51
2022/07/29 11:29:09;;;;;;;2.70;0.40;;;;;;;;;;5031740;28;20522;-51
2022/07/29 11:31:39;;;;;;;0.30;0.20;;;;;;;;;;5028857;28;20060;-56
2022/07/29 11:34:35;;;;;;;4.47;0.30;;;;;;;;;;5028443;28;20065;-56
2022/07/29 11:37:21;;;;;;;0.30;0.20;;;;;;;;;;5029221;28;20049;-54
2022/07/29 11:40:08;;;;;;;0.47;0.30;;;;;;;;;;5033309;28;20053;-53
2022/07/29 11:42:41;;;;;;;0.60;0.30;;;;;;;;;;5025727;28;20418;-52
2022/07/29 11:45:27;;;;;;;0.65;0.32;;;;;;;;;;5035730;28;20430;-51
2022/07/29 11:47:57;;;;;;;11.23;0.70;;;;;;;;;;5034270;28;20056;-55
2022/07/29 11:50:36;;;;;;;0.30;0.30;;;;;;;;;;5032303;28;20047;-54
2022/07/29 11:53:13;;;;;;;1.42;0.28;;;;;;;;;;5033525;28;20053;-51
2022/07/29 11:55:44;;;;;;;4.50;0.43;;;;;;;;;;5034681;28;20133;-53
2022/07/29 11:58:14;;;;;;;0.68;0.38;;;;;;;;;;5034424;28;20480;-52
2022/07/29 12:00:49;;;;;;;0.68;0.25;;;;;;;;;;5033198;28;20222;-54
2022/07/29 12:03:29;;;;;;;1.48;0.35;;;;;;;;;;5034646;28;20111;-52
2022/07/29 12:05:57;;;;;;;0.40;0.20;;;;;;;;;;5033648;28;20049;-55
2022/07/29 12:08:28;;;;;;;0.47;0.20;;;;;;;;;;5034304;28;20061;-56
2022/07/29 12:10:57;;;;;;;3.03;0.40;;;;;;;;;;5033841;28;20053;-52
2022/07/29 12:13:27;;;;;;;14.23;1.30;;;;;;;;;;5034024;28;20060;-55
2022/07/29 12:16:00;;;;;;;0.65;0.40;;;;;;;;;;5034071;28;20136;-55
2022/07/29 12:18:28;;;;;;;1.35;0.38;;;;;;;;;;5034209;28;20111;-52
2022/07/29 12:21:03;;;;;;;1.73;0.40;;;;;;;;;;5033435;28;20053;-51
2022/07/29 12:23:34;;;;;;;2.10;0.38;;;;;;;;;;5032456;28;20132;-51
2022/07/29 12:26:00;;;;;;;1.38;0.30;;;;;;;;;;5026520;28;20374;-52
2022/07/29 12:31:15;;;;;;;2.40;0.40;;;;;;;;;;5033873;28;20072;-54
2022/07/29 12:33:43;;;;;;;0.88;0.40;;;;;;;;;;5034162;28;20049;-55
2022/07/29 12:36:10;;;;;;;1.15;0.60;;;;;;;;;;5033400;28;20045;-51
2022/07/29 12:38:41;;;;;;;0.50;0.30;;;;;;;;;;5033012;28;20132;-51
2022/07/29 12:41:09;;;;;;;2.22;0.40;;;;;;;;;;5033291;28;20501;-51
2022/07/29 12:43:38;;;;;;;2.15;0.47;;;;;;;;;;5033846;28;20348;-51
2022/07/29 12:46:13;;;;;;;0.82;0.22;;;;;;;;;;5033096;28;20056;-52
2022/07/29 12:48:54;;;;;;;27.35;2.15;;;;;;;;;;5033104;28;20045;-51
2022/07/29 12:51:31;;;;;;;3.88;0.30;;;;;;;;;;5033626;28;20473;-50
2022/07/29 12:54:07;;;;;;;1.13;0.30;;;;;;;;;;5033744;28;20114;-50
2022/07/29 12:56:36;;;;;;;1.20;0.40;;;;;;;;;;5033180;28;20535;-51
2022/07/29 12:59:12;;;;;;;5.43;0.50;;;;;;;;;;5033328;28;20091;-50
2022/07/29 13:01:40;;;;;;;1.92;0.85;;;;;;;;;;5032932;28;20057;-50
2022/07/29 13:04:17;;;;;;;98.63;10.25;;;;;;;;;;5033364;28;20049;-53
2022/07/29 13:06:46;;;;;;;0.90;0.50;;;;;;;;;;5033516;28;20056;-52
2022/07/29 13:09:14;;;;;;;2.17;0.30;;;;;;;;;;5033028;28;20049;-54
2022/07/29 13:11:43;;;;;;;2.72;0.40;;;;;;;;;;5033339;28;20052;-50
2022/07/29 13:14:12;;;;;;;10.60;1.00;;;;;;;;;;5033110;28;20057;-51
2022/07/29 13:17:03;;;;;;;0.77;0.30;;;;;;;;;;5030553;28;20057;-52
2022/07/29 13:19:43;;;;;;;4.32;0.60;;;;;;;;;;5031496;28;20136;-51
2022/07/29 13:22:11;;;;;;;1.75;0.43;;;;;;;;;;5033164;28;20132;-53
2022/07/29 13:24:51;;;;;;;3.55;0.30;;;;;;;;;;5033147;28;20057;-55
2022/07/29 13:27:20;;;;;;;2.88;0.60;;;;;;;;;;5032232;28;20057;-55
2022/07/29 13:29:50;;;;;;;3.30;0.50;;;;;;;;;;5032418;28;20538;-53
2022/07/29 13:32:17;;;;;;;3.28;0.40;;;;;;;;;;5033102;28;20115;-55
2022/07/29 13:34:49;;;;;;;4.57;0.50;;;;;;;;;;5032980;28;20053;-51
2022/07/29 13:37:18;;;;;;;1.38;0.40;;;;;;;;;;5033057;28;20053;-52
2022/07/29 13:39:49;;;;;;;1.85;0.40;;;;;;;;;;5032973;28;20136;-53
2022/07/29 13:42:15;;;;;;;1.38;0.20;;;;;;;;;;5033313;28;20088;-52
2022/07/29 13:44:43;;;;;;;1.10;0.40;;;;;;;;;;5031974;28;20049;-52
2022/07/29 13:47:10;;;;;;;2.05;0.50;;;;;;;;;;5032397;28;20137;-52
2022/07/29 13:49:40;;;;;;;0.85;0.50;;;;;;;;;;5026586;28;20062;-53
2022/07/29 13:52:10;;;;;;;16.45;2.50;;;;;;;;;;5032073;28;20073;-55
2022/07/29 13:54:37;;;;;;;2.83;0.50;;;;;;;;;;5031922;28;20060;-54
2022/07/29 13:57:07;;;;;;;1.23;0.38;;;;;;;;;;5031819;28;20050;-55
2022/07/29 13:59:34;;;;;;;8.45;0.88;;;;;;;;;;5032045;28;20050;-55
2022/07/29 14:02:02;;;;;;;0.50;0.30;;;;;;;;;;5030165;28;20467;-54
2022/07/29 14:04:30;;;;;;;1.92;0.73;;;;;;;;;;5032314;28;20459;-51
2022/07/29 14:06:57;;;;;;;1.02;0.35;;;;;;;;;;5032134;28;20056;-53
2022/07/29 14:09:39;;;;;;;1.20;0.40;;;;;;;;;;5032543;28;20057;-55
2022/07/29 14:12:07;;;;;;;4.50;0.50;;;;;;;;;;5032222;28;20362;-52
2022/07/29 14:14:36;;;;;;;0.70;0.35;;;;;;;;;;5032454;28;20052;-55
2022/07/29 14:17:05;;;;;;;0.57;0.30;;;;;;;;;;5026178;28;20053;-54
2022/07/29 14:19:35;;;;;;;0.82;0.40;;;;;;;;;;5036654;28;20045;-53
2022/07/29 14:22:02;;;;;;;1.83;0.38;;;;;;;;;;5036698;28;20073;-55
2022/07/29 14:24:43;;;;;;;3.58;0.70;;;;;;;;;;5026916;28;20060;-54
2022/07/29 14:27:11;;;;;;;13.45;1.83;;;;;;;;;;5035421;28;20080;-52
2022/07/29 14:29:39;;;;;;;4.13;0.82;;;;;;;;;;5036152;28;20062;-55
2022/07/29 14:32:07;;;;;;;1.90;0.38;;;;;;;;;;5036374;28;20056;-55
2022/07/29 14:34:37;;;;;;;1.80;0.57;;;;;;;;;;5035680;28;20104;-53
2022/07/29 14:37:08;;;;;;;2.88;0.40;;;;;;;;;;5035878;28;20502;-56
2022/07/29 14:39:40;;;;;;;1.65;0.43;;;;;;;;;;5035555;28;20390;-57
2022/07/29 14:42:07;;;;;;;0.55;0.28;;;;;;;;;;5035644;28;20052;-52
2022/07/29 14:44:35;;;;;;;13.20;1.77;;;;;;;;;;5035293;28;20045;-51
2022/07/29 14:47:02;;;;;;;4.03;0.40;;;;;;;;;;5036269;28;20129;-53
2022/07/29 14:49:28;;;;;;;1.65;0.30;;;;;;;;;;5035940;28;20050;-52
2022/07/29 14:51:58;;;;;;;1.58;0.50;;;;;;;;;;5035599;28;20363;-52
2022/07/29 14:54:26;;;;;;;8.10;0.98;;;;;;;;;;5035244;28;20071;-52
2022/07/29 14:56:58;;;;;;;0.73;0.32;;;;;;;;;;5035289;28;20059;-52
2022/07/29 14:59:28;;;;;;;1.55;0.40;;;;;;;;;;5035238;28;20063;-53
2022/07/29 15:01:56;;;;;;;1.30;0.20;;;;;;;;;;5035973;28;20045;-52
2022/07/29 15:04:25;;;;;;;3.75;0.60;;;;;;;;;;5034237;28;20056;-55
2022/07/29 15:06:55;;;;;;;16.15;1.65;;;;;;;;;;5027969;28;20063;-56
2022/07/29 15:09:25;;;;;;;1.63;0.40;;;;;;;;;;5035780;28;20076;-56
2022/07/29 15:12:05;;;;;;;13.50;0.63;;;;;;;;;;5033387;28;20132;-54
2022/07/29 15:14:36;;;;;;;4.95;0.47;;;;;;;;;;5034575;28;20089;-55
2022/07/29 15:17:06;;;;;;;1.85;0.52;;;;;;;;;;5028910;28;20352;-52
2022/07/29 15:19:36;;;;;;;1.65;0.43;;;;;;;;;;5033140;28;20085;-52
2022/07/29 15:22:05;;;;;;;1.48;0.63;;;;;;;;;;5033898;28;20051;-55
2022/07/29 15:24:35;;;;;;;1.00;0.40;;;;;;;;;;5033103;28;20757;-52